sensor_id;sensor_type;location;lat;lon;timestamp;P1;durP1;ratioP1;P2;durP2;ratioP2
61911;SDS011;49973;52.084;5.412;2023-07-16T00:01:36;8.47;;;1.40;;
61911;SDS011;49973;52.084;5.412;2023-07-16T00:04:05;6.07;;;1.43;;
61911;SDS011;49973;52.084;5.412;2023-07-16T00:06:33;8.40;;;1.63;;
61911;SDS011;49973;52.084;5.412;2023-07-16T00:09:02;5.97;;;1.47;;
61911;SDS011;49973;52.084;5.412;2023-07-16T00:11:31;4.07;;;1.50;;
61911;SDS011;49973;52.084;5.412;2023-07-16T00:14:00;4.27;;;1.70;;
61911;SDS011;49973;52.084;5.412;2023-07-16T00:16:30;5.13;;;1.80;;
61911;SDS011;49973;52.084;5.412;2023-07-16T00:18:59;8.47;;;1.63;;
61911;SDS011;49973;52.084;5.412;2023-07-16T00:21:27;9.73;;;1.80;;
61911;SDS011;49973;52.084;5.412;2023-07-16T00:23:56;5.53;;;1.90;;
61911;SDS011;49973;52.084;5.412;2023-07-16T00:26:24;3.13;;;1.47;;
61911;SDS011;49973;52.084;5.412;2023-07-16T00:28:54;5.97;;;1.70;;
61911;SDS011;49973;52.084;5.412;2023-07-16T00:31:23;5.67;;;1.60;;
61911;SDS011;49973;52.084;5.412;2023-07-16T00:33:53;11.40;;;1.83;;
61911;SDS011;49973;52.084;5.412;2023-07-16T00:36:21;5.17;;;1.97;;
61911;SDS011;49973;52.084;5.412;2023-07-16T00:38:50;4.07;;;1.33;;
61911;SDS011;49973;52.084;5.412;2023-07-16T00:41:19;6.90;;;1.70;;
61911;SDS011;49973;52.084;5.412;2023-07-16T00:43:48;6.23;;;1.50;;
61911;SDS011;49973;52.084;5.412;2023-07-16T00:46:16;7.10;;;1.67;;
61911;SDS011;49973;52.084;5.412;2023-07-16T00:48:46;6.87;;;1.90;;
61911;SDS011;49973;52.084;5.412;2023-07-16T00:51:16;5.40;;;1.43;;
61911;SDS011;49973;52.084;5.412;2023-07-16T00:53:46;2.33;;;1.40;;
61911;SDS011;49973;52.084;5.412;2023-07-16T00:56:15;3.90;;;1.40;;
61911;SDS011;49973;52.084;5.412;2023-07-16T00:58:45;4.93;;;1.83;;
61911;SDS011;49973;52.084;5.412;2023-07-16T01:01:14;3.43;;;1.70;;
61911;SDS011;49973;52.084;5.412;2023-07-16T01:03:42;5.50;;;2.23;;
61911;SDS011;49973;52.084;5.412;2023-07-16T01:06:13;7.90;;;1.70;;
61911;SDS011;49973;52.084;5.412;2023-07-16T01:08:49;7.30;;;1.40;;
61911;SDS011;49973;52.084;5.412;2023-07-16T01:11:22;10.97;;;2.10;;
61911;SDS011;49973;52.084;5.412;2023-07-16T01:13:52;6.50;;;1.60;;
61911;SDS011;49973;52.084;5.412;2023-07-16T01:16:23;7.53;;;1.87;;
61911;SDS011;49973;52.084;5.412;2023-07-16T01:18:53;7.37;;;2.17;;
61911;SDS011;49973;52.084;5.412;2023-07-16T01:21:23;6.50;;;2.10;;
61911;SDS011;49973;52.084;5.412;2023-07-16T01:24:10;3.60;;;1.80;;
61911;SDS011;49973;52.084;5.412;2023-07-16T01:27:03;4.47;;;1.97;;
61911;SDS011;49973;52.084;5.412;2023-07-16T01:29:44;4.93;;;1.80;;
61911;SDS011;49973;52.084;5.412;2023-07-16T01:32:17;6.07;;;2.07;;
61911;SDS011;49973;52.084;5.412;2023-07-16T01:34:46;6.53;;;1.87;;
61911;SDS011;49973;52.084;5.412;2023-07-16T01:37:15;5.70;;;2.53;;
61911;SDS011;49973;52.084;5.412;2023-07-16T01:39:44;7.03;;;1.80;;
61911;SDS011;49973;52.084;5.412;2023-07-16T01:42:13;10.10;;;2.10;;
61911;SDS011;49973;52.084;5.412;2023-07-16T01:44:41;7.30;;;1.83;;
61911;SDS011;49973;52.084;5.412;2023-07-16T01:47:12;3.30;;;1.90;;
61911;SDS011;49973;52.084;5.412;2023-07-16T01:49:47;8.47;;;2.13;;
61911;SDS011;49973;52.084;5.412;2023-07-16T01:52:16;4.40;;;1.87;;
61911;SDS011;49973;52.084;5.412;2023-07-16T01:54:45;5.60;;;2.73;;
61911;SDS011;49973;52.084;5.412;2023-07-16T01:57:13;6.53;;;2.03;;
61911;SDS011;49973;52.084;5.412;2023-07-16T01:59:43;3.00;;;1.70;;
61911;SDS011;49973;52.084;5.412;2023-07-16T02:02:14;3.50;;;1.97;;
61911;SDS011;49973;52.084;5.412;2023-07-16T02:04:44;4.90;;;2.47;;
61911;SDS011;49973;52.084;5.412;2023-07-16T02:07:13;6.90;;;2.37;;
61911;SDS011;49973;52.084;5.412;2023-07-16T02:09:42;6.13;;;2.40;;
61911;SDS011;49973;52.084;5.412;2023-07-16T02:12:11;8.87;;;2.63;;
61911;SDS011;49973;52.084;5.412;2023-07-16T02:14:39;7.93;;;2.90;;
61911;SDS011;49973;52.084;5.412;2023-07-16T02:17:08;8.97;;;2.03;;
61911;SDS011;49973;52.084;5.412;2023-07-16T02:19:38;5.23;;;2.27;;
61911;SDS011;49973;52.084;5.412;2023-07-16T02:22:07;8.37;;;2.67;;
61911;SDS011;49973;52.084;5.412;2023-07-16T02:24:36;6.43;;;2.40;;
61911;SDS011;49973;52.084;5.412;2023-07-16T02:27:05;5.20;;;2.30;;
61911;SDS011;49973;52.084;5.412;2023-07-16T02:29:34;4.73;;;1.67;;
61911;SDS011;49973;52.084;5.412;2023-07-16T02:32:02;4.80;;;2.40;;
61911;SDS011;49973;52.084;5.412;2023-07-16T02:34:32;9.60;;;2.23;;
61911;SDS011;49973;52.084;5.412;2023-07-16T02:37:02;7.87;;;2.47;;
61911;SDS011;49973;52.084;5.412;2023-07-16T02:39:32;6.17;;;2.40;;
61911;SDS011;49973;52.084;5.412;2023-07-16T02:42:01;13.07;;;3.00;;
61911;SDS011;49973;52.084;5.412;2023-07-16T02:44:29;7.43;;;1.83;;
61911;SDS011;49973;52.084;5.412;2023-07-16T02:46:58;5.73;;;2.20;;
61911;SDS011;49973;52.084;5.412;2023-07-16T02:49:27;11.23;;;2.33;;
61911;SDS011;49973;52.084;5.412;2023-07-16T02:51:57;4.50;;;2.33;;
61911;SDS011;49973;52.084;5.412;2023-07-16T02:54:27;6.50;;;2.47;;
61911;SDS011;49973;52.084;5.412;2023-07-16T02:56:55;9.90;;;2.50;;
61911;SDS011;49973;52.084;5.412;2023-07-16T02:59:24;3.93;;;1.83;;
61911;SDS011;49973;52.084;5.412;2023-07-16T03:01:53;6.60;;;2.13;;
61911;SDS011;49973;52.084;5.412;2023-07-16T03:04:21;10.63;;;2.80;;
61911;SDS011;49973;52.084;5.412;2023-07-16T03:06:52;12.60;;;2.50;;
61911;SDS011;49973;52.084;5.412;2023-07-16T03:09:22;6.53;;;2.43;;
61911;SDS011;49973;52.084;5.412;2023-07-16T03:11:52;6.00;;;1.87;;
61911;SDS011;49973;52.084;5.412;2023-07-16T03:14:21;2.93;;;1.80;;
61911;SDS011;49973;52.084;5.412;2023-07-16T03:16:49;6.27;;;2.67;;
61911;SDS011;49973;52.084;5.412;2023-07-16T03:19:18;8.53;;;2.53;;
61911;SDS011;49973;52.084;5.412;2023-07-16T03:21:47;7.10;;;2.23;;
61911;SDS011;49973;52.084;5.412;2023-07-16T03:24:16;5.13;;;2.10;;
61911;SDS011;49973;52.084;5.412;2023-07-16T03:26:45;11.53;;;2.80;;
61911;SDS011;49973;52.084;5.412;2023-07-16T03:29:15;8.23;;;2.27;;
61911;SDS011;49973;52.084;5.412;2023-07-16T03:31:45;6.00;;;2.50;;
61911;SDS011;49973;52.084;5.412;2023-07-16T03:34:17;5.50;;;2.20;;
61911;SDS011;49973;52.084;5.412;2023-07-16T03:36:46;8.23;;;2.30;;
61911;SDS011;49973;52.084;5.412;2023-07-16T03:39:14;5.43;;;2.23;;
61911;SDS011;49973;52.084;5.412;2023-07-16T03:41:43;6.43;;;2.30;;
61911;SDS011;49973;52.084;5.412;2023-07-16T03:44:12;5.93;;;2.43;;
61911;SDS011;49973;52.084;5.412;2023-07-16T03:46:42;2.43;;;1.67;;
61911;SDS011;49973;52.084;5.412;2023-07-16T03:49:11;7.00;;;2.23;;
61911;SDS011;49973;52.084;5.412;2023-07-16T03:51:40;10.27;;;2.83;;
61911;SDS011;49973;52.084;5.412;2023-07-16T03:54:09;4.13;;;2.00;;
61911;SDS011;49973;52.084;5.412;2023-07-16T03:56:38;4.73;;;1.90;;
61911;SDS011;49973;52.084;5.412;2023-07-16T03:59:06;8.07;;;1.60;;
61911;SDS011;49973;52.084;5.412;2023-07-16T04:01:35;10.03;;;2.43;;
61911;SDS011;49973;52.084;5.412;2023-07-16T04:04:05;6.03;;;2.23;;
61911;SDS011;49973;52.084;5.412;2023-07-16T04:06:34;5.70;;;1.77;;
61911;SDS011;49973;52.084;5.412;2023-07-16T04:09:03;3.80;;;2.03;;
61911;SDS011;49973;52.084;5.412;2023-07-16T04:11:31;7.53;;;2.30;;
61911;SDS011;49973;52.084;5.412;2023-07-16T04:14:00;10.27;;;3.00;;
61911;SDS011;49973;52.084;5.412;2023-07-16T04:16:28;9.30;;;2.87;;
61911;SDS011;49973;52.084;5.412;2023-07-16T04:18:57;6.17;;;2.10;;
61911;SDS011;49973;52.084;5.412;2023-07-16T04:21:27;10.67;;;2.70;;
61911;SDS011;49973;52.084;5.412;2023-07-16T04:23:56;13.97;;;3.43;;
61911;SDS011;49973;52.084;5.412;2023-07-16T04:26:24;7.43;;;2.97;;
61911;SDS011;49973;52.084;5.412;2023-07-16T04:28:53;10.43;;;3.20;;
61911;SDS011;49973;52.084;5.412;2023-07-16T04:31:22;9.17;;;2.93;;
61911;SDS011;49973;52.084;5.412;2023-07-16T04:33:51;8.53;;;3.20;;
61911;SDS011;49973;52.084;5.412;2023-07-16T04:36:19;7.23;;;2.80;;
61911;SDS011;49973;52.084;5.412;2023-07-16T04:38:49;4.23;;;2.20;;
61911;SDS011;49973;52.084;5.412;2023-07-16T04:41:20;4.83;;;2.27;;
61911;SDS011;49973;52.084;5.412;2023-07-16T04:43:49;9.00;;;3.03;;
61911;SDS011;49973;52.084;5.412;2023-07-16T04:46:17;6.43;;;2.60;;
61911;SDS011;49973;52.084;5.412;2023-07-16T04:48:46;9.07;;;2.93;;
61911;SDS011;49973;52.084;5.412;2023-07-16T04:51:15;7.20;;;2.23;;
61911;SDS011;49973;52.084;5.412;2023-07-16T04:53:44;8.97;;;2.93;;
61911;SDS011;49973;52.084;5.412;2023-07-16T04:56:14;5.60;;;2.50;;
61911;SDS011;49973;52.084;5.412;2023-07-16T04:58:44;11.67;;;3.03;;
61911;SDS011;49973;52.084;5.412;2023-07-16T05:01:13;9.57;;;2.83;;
61911;SDS011;49973;52.084;5.412;2023-07-16T05:03:42;7.03;;;1.87;;
61911;SDS011;49973;52.084;5.412;2023-07-16T05:06:10;9.57;;;2.43;;
61911;SDS011;49973;52.084;5.412;2023-07-16T05:08:39;2.97;;;2.10;;
61911;SDS011;49973;52.084;5.412;2023-07-16T05:11:08;8.93;;;2.33;;
61911;SDS011;49973;52.084;5.412;2023-07-16T05:13:38;10.80;;;2.43;;
61911;SDS011;49973;52.084;5.412;2023-07-16T05:16:06;7.40;;;2.67;;
61911;SDS011;49973;52.084;5.412;2023-07-16T05:18:35;6.17;;;2.37;;
61911;SDS011;49973;52.084;5.412;2023-07-16T05:21:04;4.73;;;2.17;;
61911;SDS011;49973;52.084;5.412;2023-07-16T05:23:32;6.73;;;3.83;;
61911;SDS011;49973;52.084;5.412;2023-07-16T05:26:01;8.47;;;3.03;;
61911;SDS011;49973;52.084;5.412;2023-07-16T05:28:30;5.37;;;2.37;;
61911;SDS011;49973;52.084;5.412;2023-07-16T05:31:00;7.27;;;2.97;;
61911;SDS011;49973;52.084;5.412;2023-07-16T05:33:29;7.60;;;2.57;;
61911;SDS011;49973;52.084;5.412;2023-07-16T05:35:58;9.67;;;2.73;;
61911;SDS011;49973;52.084;5.412;2023-07-16T05:38:27;4.70;;;2.17;;
61911;SDS011;49973;52.084;5.412;2023-07-16T05:40:59;5.27;;;2.57;;
61911;SDS011;49973;52.084;5.412;2023-07-16T05:43:29;12.13;;;3.30;;
61911;SDS011;49973;52.084;5.412;2023-07-16T05:45:58;7.90;;;2.70;;
61911;SDS011;49973;52.084;5.412;2023-07-16T05:48:28;6.37;;;2.80;;
61911;SDS011;49973;52.084;5.412;2023-07-16T05:50:57;6.47;;;2.73;;
61911;SDS011;49973;52.084;5.412;2023-07-16T05:53:26;6.03;;;2.63;;
61911;SDS011;49973;52.084;5.412;2023-07-16T05:55:54;9.03;;;3.00;;
61911;SDS011;49973;52.084;5.412;2023-07-16T05:58:23;5.87;;;2.80;;
61911;SDS011;49973;52.084;5.412;2023-07-16T06:00:52;10.77;;;2.80;;
61911;SDS011;49973;52.084;5.412;2023-07-16T06:03:22;9.67;;;3.37;;
61911;SDS011;49973;52.084;5.412;2023-07-16T06:05:50;7.77;;;3.20;;
61911;SDS011;49973;52.084;5.412;2023-07-16T06:08:19;4.97;;;2.63;;
61911;SDS011;49973;52.084;5.412;2023-07-16T06:10:48;6.60;;;2.80;;
61911;SDS011;49973;52.084;5.412;2023-07-16T06:13:17;8.17;;;3.40;;
61911;SDS011;49973;52.084;5.412;2023-07-16T06:15:45;8.43;;;3.23;;
61911;SDS011;49973;52.084;5.412;2023-07-16T06:18:14;8.17;;;3.10;;
61911;SDS011;49973;52.084;5.412;2023-07-16T06:20:48;10.67;;;3.63;;
61911;SDS011;49973;52.084;5.412;2023-07-16T06:23:18;7.60;;;3.37;;
61911;SDS011;49973;52.084;5.412;2023-07-16T06:25:47;9.37;;;2.93;;
61911;SDS011;49973;52.084;5.412;2023-07-16T06:28:16;5.07;;;2.97;;
61911;SDS011;49973;52.084;5.412;2023-07-16T06:30:45;10.23;;;2.90;;
61911;SDS011;49973;52.084;5.412;2023-07-16T06:33:14;6.53;;;2.90;;
61911;SDS011;49973;52.084;5.412;2023-07-16T06:35:43;15.37;;;3.53;;
61911;SDS011;49973;52.084;5.412;2023-07-16T06:38:15;5.97;;;3.03;;
61911;SDS011;49973;52.084;5.412;2023-07-16T06:40:48;8.73;;;3.27;;
61911;SDS011;49973;52.084;5.412;2023-07-16T06:43:17;6.90;;;3.13;;
61911;SDS011;49973;52.084;5.412;2023-07-16T06:45:48;7.73;;;3.17;;
61911;SDS011;49973;52.084;5.412;2023-07-16T06:48:18;8.70;;;3.43;;
61911;SDS011;49973;52.084;5.412;2023-07-16T06:50:47;7.23;;;2.90;;
61911;SDS011;49973;52.084;5.412;2023-07-16T06:53:17;4.57;;;2.93;;
61911;SDS011;49973;52.084;5.412;2023-07-16T06:55:47;5.70;;;3.30;;
61911;SDS011;49973;52.084;5.412;2023-07-16T06:58:15;9.40;;;3.47;;
61911;SDS011;49973;52.084;5.412;2023-07-16T07:00:44;7.17;;;3.00;;
61911;SDS011;49973;52.084;5.412;2023-07-16T07:03:13;8.60;;;3.00;;
61911;SDS011;49973;52.084;5.412;2023-07-16T07:05:42;5.87;;;2.80;;
61911;SDS011;49973;52.084;5.412;2023-07-16T07:08:11;19.90;;;3.77;;
61911;SDS011;49973;52.084;5.412;2023-07-16T07:10:41;7.40;;;3.60;;
61911;SDS011;49973;52.084;5.412;2023-07-16T07:13:10;9.20;;;3.53;;
61911;SDS011;49973;52.084;5.412;2023-07-16T07:15:38;7.07;;;3.33;;
61911;SDS011;49973;52.084;5.412;2023-07-16T07:18:09;6.50;;;2.67;;
61911;SDS011;49973;52.084;5.412;2023-07-16T07:20:39;5.40;;;2.77;;
61911;SDS011;49973;52.084;5.412;2023-07-16T07:23:07;7.83;;;2.97;;
61911;SDS011;49973;52.084;5.412;2023-07-16T07:25:36;4.57;;;2.77;;
61911;SDS011;49973;52.084;5.412;2023-07-16T07:28:06;6.97;;;3.00;;
61911;SDS011;49973;52.084;5.412;2023-07-16T07:30:35;4.63;;;3.07;;
61911;SDS011;49973;52.084;5.412;2023-07-16T07:33:04;6.03;;;3.23;;
61911;SDS011;49973;52.084;5.412;2023-07-16T07:35:33;5.37;;;3.00;;
61911;SDS011;49973;52.084;5.412;2023-07-16T07:38:02;7.43;;;3.37;;
61911;SDS011;49973;52.084;5.412;2023-07-16T07:40:30;10.03;;;3.17;;
61911;SDS011;49973;52.084;5.412;2023-07-16T07:42:59;11.53;;;3.30;;
61911;SDS011;49973;52.084;5.412;2023-07-16T07:45:29;8.23;;;2.73;;
61911;SDS011;49973;52.084;5.412;2023-07-16T07:47:58;9.77;;;3.20;;
61911;SDS011;49973;52.084;5.412;2023-07-16T07:50:27;6.63;;;3.40;;
61911;SDS011;49973;52.084;5.412;2023-07-16T07:52:56;8.07;;;3.17;;
61911;SDS011;49973;52.084;5.412;2023-07-16T07:55:24;6.40;;;2.80;;
61911;SDS011;49973;52.084;5.412;2023-07-16T07:57:53;8.20;;;3.17;;
61911;SDS011;49973;52.084;5.412;2023-07-16T08:00:22;10.93;;;3.33;;
61911;SDS011;49973;52.084;5.412;2023-07-16T08:02:52;8.43;;;3.67;;
61911;SDS011;49973;52.084;5.412;2023-07-16T08:05:21;6.97;;;3.13;;
61911;SDS011;49973;52.084;5.412;2023-07-16T08:07:50;13.93;;;4.03;;
61911;SDS011;49973;52.084;5.412;2023-07-16T08:10:20;7.17;;;2.90;;
61911;SDS011;49973;52.084;5.412;2023-07-16T08:12:49;7.60;;;3.13;;
61911;SDS011;49973;52.084;5.412;2023-07-16T08:15:17;7.83;;;2.93;;
61911;SDS011;49973;52.084;5.412;2023-07-16T08:17:46;8.83;;;3.33;;
61911;SDS011;49973;52.084;5.412;2023-07-16T08:20:17;5.40;;;2.93;;
61911;SDS011;49973;52.084;5.412;2023-07-16T08:22:46;7.70;;;3.43;;
61911;SDS011;49973;52.084;5.412;2023-07-16T08:25:14;9.63;;;2.87;;
61911;SDS011;49973;52.084;5.412;2023-07-16T08:27:43;12.23;;;3.40;;
61911;SDS011;49973;52.084;5.412;2023-07-16T08:30:12;8.63;;;3.43;;
61911;SDS011;49973;52.084;5.412;2023-07-16T08:32:41;8.37;;;3.00;;
61911;SDS011;49973;52.084;5.412;2023-07-16T08:35:10;8.30;;;3.50;;
61911;SDS011;49973;52.084;5.412;2023-07-16T08:37:44;9.37;;;3.77;;
61911;SDS011;49973;52.084;5.412;2023-07-16T08:40:13;8.87;;;2.60;;
61911;SDS011;49973;52.084;5.412;2023-07-16T08:42:44;9.53;;;3.30;;
61911;SDS011;49973;52.084;5.412;2023-07-16T08:45:14;9.37;;;3.37;;
61911;SDS011;49973;52.084;5.412;2023-07-16T08:47:44;6.87;;;3.27;;
61911;SDS011;49973;52.084;5.412;2023-07-16T08:50:12;8.90;;;3.53;;
61911;SDS011;49973;52.084;5.412;2023-07-16T08:52:41;7.60;;;3.53;;
61911;SDS011;49973;52.084;5.412;2023-07-16T08:55:12;9.33;;;2.93;;
61911;SDS011;49973;52.084;5.412;2023-07-16T08:57:41;5.17;;;3.17;;
61911;SDS011;49973;52.084;5.412;2023-07-16T09:00:11;16.00;;;3.63;;
61911;SDS011;49973;52.084;5.412;2023-07-16T09:02:42;8.80;;;3.73;;
61911;SDS011;49973;52.084;5.412;2023-07-16T09:05:11;8.73;;;3.20;;
61911;SDS011;49973;52.084;5.412;2023-07-16T09:08:02;6.73;;;3.37;;
61911;SDS011;49973;52.084;5.412;2023-07-16T09:10:32;10.23;;;2.97;;
61911;SDS011;49973;52.084;5.412;2023-07-16T09:13:01;7.63;;;3.13;;
61911;SDS011;49973;52.084;5.412;2023-07-16T09:15:30;10.87;;;4.20;;
61911;SDS011;49973;52.084;5.412;2023-07-16T09:18:01;6.33;;;3.80;;
61911;SDS011;49973;52.084;5.412;2023-07-16T09:20:31;7.93;;;3.07;;
61911;SDS011;49973;52.084;5.412;2023-07-16T09:23:00;8.43;;;3.33;;
61911;SDS011;49973;52.084;5.412;2023-07-16T09:25:29;8.77;;;3.17;;
61911;SDS011;49973;52.084;5.412;2023-07-16T09:28:01;5.40;;;3.00;;
61911;SDS011;49973;52.084;5.412;2023-07-16T09:30:31;6.57;;;3.60;;
61911;SDS011;49973;52.084;5.412;2023-07-16T09:33:09;5.13;;;3.43;;
61911;SDS011;49973;52.084;5.412;2023-07-16T09:35:39;8.87;;;3.67;;
61911;SDS011;49973;52.084;5.412;2023-07-16T09:38:08;9.40;;;3.40;;
61911;SDS011;49973;52.084;5.412;2023-07-16T09:40:39;8.80;;;3.70;;
61911;SDS011;49973;52.084;5.412;2023-07-16T09:43:12;7.57;;;3.13;;
61911;SDS011;49973;52.084;5.412;2023-07-16T09:45:42;6.77;;;2.77;;
61911;SDS011;49973;52.084;5.412;2023-07-16T09:48:12;6.37;;;3.27;;
61911;SDS011;49973;52.084;5.412;2023-07-16T09:50:44;11.77;;;3.27;;
61911;SDS011;49973;52.084;5.412;2023-07-16T09:53:18;10.80;;;3.40;;
61911;SDS011;49973;52.084;5.412;2023-07-16T09:55:50;6.83;;;3.47;;
61911;SDS011;49973;52.084;5.412;2023-07-16T09:58:21;12.27;;;3.40;;
61911;SDS011;49973;52.084;5.412;2023-07-16T10:00:52;11.00;;;3.03;;
61911;SDS011;49973;52.084;5.412;2023-07-16T10:03:22;11.50;;;3.27;;
61911;SDS011;49973;52.084;5.412;2023-07-16T10:05:51;10.70;;;3.00;;
61911;SDS011;49973;52.084;5.412;2023-07-16T10:08:20;4.60;;;2.83;;
61911;SDS011;49973;52.084;5.412;2023-07-16T10:10:52;6.33;;;3.60;;
61911;SDS011;49973;52.084;5.412;2023-07-16T10:13:26;6.93;;;3.17;;
61911;SDS011;49973;52.084;5.412;2023-07-16T10:15:56;7.80;;;3.70;;
61911;SDS011;49973;52.084;5.412;2023-07-16T10:18:26;8.80;;;3.70;;
61911;SDS011;49973;52.084;5.412;2023-07-16T10:21:00;8.87;;;3.70;;
61911;SDS011;49973;52.084;5.412;2023-07-16T10:23:38;21.07;;;3.47;;
61911;SDS011;49973;52.084;5.412;2023-07-16T10:26:09;6.63;;;3.10;;
61911;SDS011;49973;52.084;5.412;2023-07-16T10:28:46;6.57;;;3.30;;
61911;SDS011;49973;52.084;5.412;2023-07-16T10:31:19;9.67;;;3.00;;
61911;SDS011;49973;52.084;5.412;2023-07-16T10:33:57;6.70;;;2.97;;
61911;SDS011;49973;52.084;5.412;2023-07-16T10:36:36;8.10;;;2.80;;
61911;SDS011;49973;52.084;5.412;2023-07-16T10:39:06;6.27;;;3.20;;
61911;SDS011;49973;52.084;5.412;2023-07-16T10:41:35;4.57;;;2.70;;
61911;SDS011;49973;52.084;5.412;2023-07-16T10:44:07;4.63;;;2.80;;
61911;SDS011;49973;52.084;5.412;2023-07-16T10:46:36;3.97;;;2.93;;
61911;SDS011;49973;52.084;5.412;2023-07-16T10:49:08;7.10;;;2.60;;
61911;SDS011;49973;52.084;5.412;2023-07-16T10:51:37;10.67;;;3.37;;
61911;SDS011;49973;52.084;5.412;2023-07-16T10:54:06;8.33;;;2.87;;
61911;SDS011;49973;52.084;5.412;2023-07-16T10:56:35;8.87;;;3.40;;
61911;SDS011;49973;52.084;5.412;2023-07-16T10:59:06;10.40;;;4.30;;
61911;SDS011;49973;52.084;5.412;2023-07-16T11:01:39;6.20;;;3.10;;
61911;SDS011;49973;52.084;5.412;2023-07-16T11:04:09;5.70;;;3.40;;
61911;SDS011;49973;52.084;5.412;2023-07-16T11:06:38;9.17;;;3.47;;
61911;SDS011;49973;52.084;5.412;2023-07-16T11:09:07;12.97;;;3.40;;
61911;SDS011;49973;52.084;5.412;2023-07-16T11:11:37;12.43;;;3.63;;
61911;SDS011;49973;52.084;5.412;2023-07-16T11:14:09;11.00;;;3.90;;
61911;SDS011;49973;52.084;5.412;2023-07-16T11:16:38;6.33;;;3.17;;
61911;SDS011;49973;52.084;5.412;2023-07-16T11:19:07;7.07;;;3.50;;
61911;SDS011;49973;52.084;5.412;2023-07-16T11:21:36;9.80;;;2.73;;
61911;SDS011;49973;52.084;5.412;2023-07-16T11:24:08;6.93;;;3.27;;
61911;SDS011;49973;52.084;5.412;2023-07-16T11:26:38;7.57;;;2.63;;
61911;SDS011;49973;52.084;5.412;2023-07-16T11:29:14;8.93;;;3.10;;
61911;SDS011;49973;52.084;5.412;2023-07-16T11:31:43;10.13;;;3.17;;
61911;SDS011;49973;52.084;5.412;2023-07-16T11:34:17;5.17;;;2.97;;
61911;SDS011;49973;52.084;5.412;2023-07-16T11:36:48;7.53;;;2.53;;
61911;SDS011;49973;52.084;5.412;2023-07-16T11:39:17;5.17;;;2.20;;
61911;SDS011;49973;52.084;5.412;2023-07-16T11:41:53;5.73;;;2.53;;
61911;SDS011;49973;52.084;5.412;2023-07-16T11:44:26;5.53;;;3.03;;
61911;SDS011;49973;52.084;5.412;2023-07-16T11:47:01;11.27;;;3.07;;
61911;SDS011;49973;52.084;5.412;2023-07-16T11:49:31;6.23;;;2.40;;
61911;SDS011;49973;52.084;5.412;2023-07-16T11:52:05;9.90;;;2.07;;
61911;SDS011;49973;52.084;5.412;2023-07-16T11:54:35;3.53;;;1.63;;
61911;SDS011;49973;52.084;5.412;2023-07-16T11:57:04;3.23;;;1.70;;
61911;SDS011;49973;52.084;5.412;2023-07-16T11:59:35;6.97;;;1.67;;
61911;SDS011;49973;52.084;5.412;2023-07-16T12:02:05;3.53;;;1.30;;
61911;SDS011;49973;52.084;5.412;2023-07-16T12:04:35;2.37;;;1.77;;
61911;SDS011;49973;52.084;5.412;2023-07-16T12:07:04;3.33;;;1.60;;
61911;SDS011;49973;52.084;5.412;2023-07-16T12:09:33;3.47;;;1.60;;
61911;SDS011;49973;52.084;5.412;2023-07-16T12:12:02;2.60;;;1.97;;
61911;SDS011;49973;52.084;5.412;2023-07-16T12:14:32;4.77;;;1.70;;
61911;SDS011;49973;52.084;5.412;2023-07-16T12:17:02;4.30;;;1.50;;
61911;SDS011;49973;52.084;5.412;2023-07-16T12:19:32;4.57;;;1.53;;
61911;SDS011;49973;52.084;5.412;2023-07-16T12:22:01;2.03;;;1.23;;
61911;SDS011;49973;52.084;5.412;2023-07-16T12:24:30;2.80;;;1.40;;
61911;SDS011;49973;52.084;5.412;2023-07-16T12:26:59;2.80;;;1.37;;
61911;SDS011;49973;52.084;5.412;2023-07-16T12:29:27;5.83;;;1.60;;
61911;SDS011;49973;52.084;5.412;2023-07-16T12:31:56;1.97;;;1.50;;
61911;SDS011;49973;52.084;5.412;2023-07-16T12:34:27;2.47;;;1.90;;
61911;SDS011;49973;52.084;5.412;2023-07-16T12:36:56;4.77;;;1.90;;
61911;SDS011;49973;52.084;5.412;2023-07-16T12:39:25;4.33;;;1.93;;
61911;SDS011;49973;52.084;5.412;2023-07-16T12:41:54;4.17;;;1.30;;
61911;SDS011;49973;52.084;5.412;2023-07-16T12:44:23;2.27;;;1.20;;
61911;SDS011;49973;52.084;5.412;2023-07-16T12:46:52;13.40;;;1.40;;
61911;SDS011;49973;52.084;5.412;2023-07-16T12:49:21;1.10;;;0.83;;
61911;SDS011;49973;52.084;5.412;2023-07-16T12:51:51;3.23;;;1.53;;
61911;SDS011;49973;52.084;5.412;2023-07-16T12:54:20;2.87;;;1.57;;
61911;SDS011;49973;52.084;5.412;2023-07-16T12:56:49;2.20;;;1.47;;
61911;SDS011;49973;52.084;5.412;2023-07-16T12:59:17;3.20;;;1.43;;
61911;SDS011;49973;52.084;5.412;2023-07-16T13:01:46;3.20;;;1.23;;
61911;SDS011;49973;52.084;5.412;2023-07-16T13:04:17;3.23;;;1.17;;
61911;SDS011;49973;52.084;5.412;2023-07-16T13:06:46;7.97;;;1.83;;
61911;SDS011;49973;52.084;5.412;2023-07-16T13:09:17;4.27;;;1.60;;
61911;SDS011;49973;52.084;5.412;2023-07-16T13:11:45;4.20;;;1.60;;
61911;SDS011;49973;52.084;5.412;2023-07-16T13:14:14;6.17;;;1.10;;
61911;SDS011;49973;52.084;5.412;2023-07-16T13:16:44;5.47;;;1.20;;
61911;SDS011;49973;52.084;5.412;2023-07-16T13:19:13;3.37;;;0.80;;
61911;SDS011;49973;52.084;5.412;2023-07-16T13:21:42;3.83;;;1.30;;
61911;SDS011;49973;52.084;5.412;2023-07-16T13:24:11;1.93;;;1.07;;
61911;SDS011;49973;52.084;5.412;2023-07-16T13:26:41;4.67;;;1.37;;
61911;SDS011;49973;52.084;5.412;2023-07-16T13:29:14;2.53;;;1.13;;
61911;SDS011;49973;52.084;5.412;2023-07-16T13:31:42;3.30;;;1.40;;
61911;SDS011;49973;52.084;5.412;2023-07-16T13:34:11;6.30;;;1.27;;
61911;SDS011;49973;52.084;5.412;2023-07-16T13:36:40;3.20;;;0.93;;
61911;SDS011;49973;52.084;5.412;2023-07-16T13:39:09;2.00;;;1.70;;
61911;SDS011;49973;52.084;5.412;2023-07-16T13:41:41;5.93;;;0.83;;
61911;SDS011;49973;52.084;5.412;2023-07-16T13:44:10;3.23;;;1.30;;
61911;SDS011;49973;52.084;5.412;2023-07-16T13:46:39;1.93;;;0.90;;
61911;SDS011;49973;52.084;5.412;2023-07-16T13:49:08;1.33;;;0.93;;
61911;SDS011;49973;52.084;5.412;2023-07-16T13:51:36;1.80;;;1.00;;
61911;SDS011;49973;52.084;5.412;2023-07-16T13:54:05;2.13;;;1.10;;
61911;SDS011;49973;52.084;5.412;2023-07-16T13:56:34;4.63;;;1.10;;
61911;SDS011;49973;52.084;5.412;2023-07-16T13:59:05;2.57;;;1.13;;
61911;SDS011;49973;52.084;5.412;2023-07-16T14:01:37;2.03;;;0.97;;
61911;SDS011;49973;52.084;5.412;2023-07-16T14:04:11;3.37;;;1.13;;
61911;SDS011;49973;52.084;5.412;2023-07-16T14:06:40;3.40;;;1.30;;
61911;SDS011;49973;52.084;5.412;2023-07-16T14:09:08;5.20;;;0.90;;
61911;SDS011;49973;52.084;5.412;2023-07-16T14:11:37;2.30;;;1.00;;
61911;SDS011;49973;52.084;5.412;2023-07-16T14:14:07;2.20;;;0.93;;
61911;SDS011;49973;52.084;5.412;2023-07-16T14:16:36;4.40;;;1.20;;
61911;SDS011;49973;52.084;5.412;2023-07-16T14:19:07;4.17;;;1.70;;
61911;SDS011;49973;52.084;5.412;2023-07-16T14:21:35;2.80;;;0.83;;
61911;SDS011;49973;52.084;5.412;2023-07-16T14:24:04;1.93;;;0.73;;
61911;SDS011;49973;52.084;5.412;2023-07-16T14:26:34;1.80;;;0.93;;
61911;SDS011;49973;52.084;5.412;2023-07-16T14:29:02;1.80;;;0.90;;
61911;SDS011;49973;52.084;5.412;2023-07-16T14:31:33;4.30;;;1.30;;
61911;SDS011;49973;52.084;5.412;2023-07-16T14:34:02;3.90;;;1.47;;
61911;SDS011;49973;52.084;5.412;2023-07-16T14:36:30;5.13;;;1.10;;
61911;SDS011;49973;52.084;5.412;2023-07-16T14:38:59;6.23;;;1.10;;
61911;SDS011;49973;52.084;5.412;2023-07-16T14:41:28;1.80;;;1.00;;
61911;SDS011;49973;52.084;5.412;2023-07-16T14:43:57;3.40;;;1.57;;
61911;SDS011;49973;52.084;5.412;2023-07-16T14:46:25;2.20;;;0.83;;
61911;SDS011;49973;52.084;5.412;2023-07-16T14:48:56;1.77;;;1.07;;
61911;SDS011;49973;52.084;5.412;2023-07-16T14:51:25;3.83;;;1.13;;
61911;SDS011;49973;52.084;5.412;2023-07-16T14:53:54;5.07;;;1.00;;
61911;SDS011;49973;52.084;5.412;2023-07-16T14:56:23;6.10;;;1.50;;
61911;SDS011;49973;52.084;5.412;2023-07-16T14:58:53;5.00;;;1.40;;
61911;SDS011;49973;52.084;5.412;2023-07-16T15:01:21;3.93;;;1.13;;